Terminal Aerodrome Forecast
Issued by NWS

Home | Current Version | Previous Version | Text Only | Print | Product List | Glossary On
Versions: 1 2 3 4 5 6 7 8 9 10 11 12 13 14 15 16 17 18 19 20 21 22 23 24 25 26 27 28 29 30
000
FTUS43 KDLH 210500
TAFHIB
TAF
KHIB 210539Z 2106/2206 VRB05KT P6SM SKC
     FM210800 VRB03KT 3SM BR SCT008 OVC012
     FM211000 00000KT 1 1/2SM BR SCT004 OVC012
     FM211500 10005KT P6SM VCSH OVC015
     FM211800 11006KT P6SM VCTS OVC050CB
     FM220000 11004KT 6SM -DZ BR OVC015=

USA.gov is the U.S. government's official web portal to all federal, state and local government web resources and services.